Time;durP1;ratioP1;P1;durP2;ratioP2;P2;SDS_P1;SDS_P2;PMS_P1;PMS_P2;Temp;Humidity;BMP_temperature;BMP_pressure;BME280_temperature;BME280_humidity;BME280_pressure;Samples;Min_cycle;Max_cycle;Signal;HPM_P1;HPM_P2
2022/10/30 00:01:42;;;;;;;34.60;30.80;;;15.50;1.00;;;;;;6319483;22;20790;-82
2022/10/30 00:04:13;;;;;;;37.53;32.87;;;15.50;1.00;;;;;;6319410;22;20430;-83
2022/10/30 00:06:43;;;;;;;39.57;31.77;;;15.50;1.00;;;;;;6321063;22;20422;-82
2022/10/30 00:09:14;;;;;;;38.30;32.03;;;15.40;1.00;;;;;;6320443;22;20437;-80
2022/10/30 00:11:41;;;;;;;37.33;33.30;;;15.50;1.00;;;;;;6320514;22;20516;-82
2022/10/30 00:14:14;;;;;;;36.10;32.20;;;15.50;1.00;;;;;;6319253;22;20595;-82
2022/10/30 00:16:44;;;;;;;38.23;33.17;;;15.50;1.00;;;;;;6323348;22;20415;-87
2022/10/30 00:19:11;;;;;;;38.80;33.27;;;15.40;1.00;;;;;;6326329;22;20415;-86
2022/10/30 00:21:41;;;;;;;37.23;32.70;;;15.40;1.00;;;;;;6323314;22;20498;-86
2022/10/30 00:24:11;;;;;;;38.20;33.83;;;15.30;1.00;;;;;;6318885;22;20473;-86
2022/10/30 00:26:43;;;;;;;39.00;34.80;;;15.20;1.00;;;;;;6321954;22;20389;-84
2022/10/30 00:29:13;;;;;;;47.53;42.30;;;15.20;1.00;;;;;;6319433;22;20444;-85
2022/10/30 00:31:41;;;;;;;35.00;31.30;;;15.10;1.00;;;;;;6324729;22;20408;-84
2022/10/30 00:34:11;;;;;;;38.70;33.03;;;15.20;1.00;;;;;;6323295;22;20770;-84
2022/10/30 00:36:39;;;;;;;38.03;34.03;;;15.20;1.00;;;;;;6322167;22;20417;-88
2022/10/30 00:39:13;;;;;;;40.80;32.87;;;15.20;1.00;;;;;;6317833;22;20460;-83
2022/10/30 00:41:41;;;;;;;40.37;34.13;;;15.10;1.00;;;;;;6318877;22;20427;-82
2022/10/30 00:44:38;;;;;;;38.87;34.40;;;15.00;1.00;;;;;;6320177;22;20424;-83
2022/10/30 00:47:11;;;;;;;39.80;34.00;;;15.00;1.00;;;;;;6314650;22;20451;-84
2022/10/30 00:49:50;;;;;;;41.90;33.63;;;15.00;1.00;;;;;;6323523;22;20421;-83
2022/10/30 00:52:19;;;;;;;42.07;35.00;;;15.00;1.00;;;;;;6320541;22;20403;-85
2022/10/30 00:54:55;;;;;;;38.00;33.37;;;15.00;1.00;;;;;;6317470;22;20404;-84
2022/10/30 00:57:24;;;;;;;40.50;35.20;;;15.00;1.00;;;;;;6319077;22;20416;-84
2022/10/30 00:59:52;;;;;;;41.20;35.00;;;14.90;1.00;;;;;;6318796;22;20421;-84
2022/10/30 01:02:22;;;;;;;41.13;33.77;;;14.80;1.00;;;;;;6320967;22;20447;-85
2022/10/30 01:04:54;;;;;;;38.43;34.23;;;14.80;1.00;;;;;;6319978;22;20448;-85
2022/10/30 01:07:24;;;;;;;39.60;33.20;;;14.80;1.00;;;;;;6325302;22;20406;-85
2022/10/30 01:09:53;;;;;;;39.93;35.77;;;14.70;1.00;;;;;;6323029;22;20586;-85
2022/10/30 01:12:20;;;;;;;33.40;29.37;;;14.70;1.00;;;;;;6326094;22;20464;-89
2022/10/30 01:14:57;;;;;;;33.80;29.30;;;14.70;1.00;;;;;;6318136;22;20495;-84
2022/10/30 01:17:50;;;;;;;35.57;31.20;;;14.70;1.00;;;;;;6321760;22;20416;-87
2022/10/30 01:20:33;;;;;;;41.73;30.20;;;14.70;1.00;;;;;;6322467;22;20628;-89
2022/10/30 01:26:10;;;;;;;34.40;28.40;;;14.70;1.00;;;;;;6319421;22;20431;-86
2022/10/30 01:29:01;;;;;;;37.40;29.00;;;14.60;1.00;;;;;;6328265;22;20906;-81
2022/10/30 01:31:53;;;;;;;33.33;27.97;;;14.60;1.00;;;;;;6324694;22;20412;-84
2022/10/30 01:34:43;;;;;;;37.00;29.00;;;14.60;1.00;;;;;;6323928;22;20436;-84
2022/10/30 01:37:22;;;;;;;34.60;28.93;;;14.60;1.00;;;;;;6325489;22;20576;-88
2022/10/30 01:39:54;;;;;;;35.50;28.70;;;14.60;1.00;;;;;;6322849;22;20450;-87
2022/10/30 01:42:51;;;;;;;29.73;25.47;;;14.50;1.00;;;;;;6319293;22;20431;-83
2022/10/30 01:45:33;;;;;;;31.47;27.07;;;14.60;1.00;;;;;;6321154;22;20440;-89
2022/10/30 01:48:24;;;;;;;29.77;25.23;;;14.60;1.00;;;;;;6321232;22;20459;-87
2022/10/30 01:51:02;;;;;;;32.47;27.90;;;14.60;1.00;;;;;;6319096;22;20825;-88
2022/10/30 01:53:51;;;;;;;28.93;25.07;;;14.60;1.00;;;;;;6319013;22;20418;-85
2022/10/30 01:56:31;;;;;;;31.83;26.07;;;14.50;1.00;;;;;;6319886;22;20497;-86
2022/10/30 01:59:02;;;;;;;36.90;26.57;;;14.50;1.00;;;;;;6323099;22;20437;-87
2022/10/30 02:01:34;;;;;;;29.77;24.57;;;14.50;1.00;;;;;;6322691;22;20464;-88
2022/10/30 02:04:05;;;;;;;29.70;25.50;;;14.40;1.00;;;;;;6323389;22;20420;-83
2022/10/30 02:06:32;;;;;;;28.03;25.07;;;14.40;1.00;;;;;;6323950;22;20417;-84
2022/10/30 02:09:03;;;;;;;34.40;27.53;;;14.30;1.00;;;;;;6322016;22;20405;-84
2022/10/30 02:11:35;;;;;;;30.07;25.83;;;14.30;1.00;;;;;;6320572;22;20461;-83
2022/10/30 02:14:12;;;;;;;30.00;24.17;;;14.30;1.00;;;;;;6309118;22;20488;-87
2022/10/30 02:16:51;;;;;;;31.40;25.53;;;14.30;1.00;;;;;;6340891;22;20423;-82
2022/10/30 02:19:24;;;;;;;29.80;26.00;;;14.40;1.00;;;;;;6320902;22;20414;-82
2022/10/30 02:21:54;;;;;;;32.70;26.47;;;14.40;1.00;;;;;;6306538;22;20569;-83
2022/10/30 02:24:23;;;;;;;30.03;25.93;;;14.30;1.00;;;;;;6308719;22;21288;-83
2022/10/30 02:26:52;;;;;;;33.97;24.50;;;14.30;1.00;;;;;;6317723;22;20396;-81
2022/10/30 02:29:24;;;;;;;29.07;24.03;;;14.30;1.00;;;;;;6317490;22;20427;-82
2022/10/30 02:31:53;;;;;;;31.00;23.73;;;14.40;1.00;;;;;;6318624;22;20404;-85
2022/10/30 02:34:26;;;;;;;27.87;23.63;;;14.40;1.00;;;;;;6308195;22;20399;-84
2022/10/30 02:37:02;;;;;;;31.40;23.73;;;14.40;1.00;;;;;;6307688;22;21143;-82
2022/10/30 02:39:44;;;;;;;30.50;25.93;;;14.40;1.00;;;;;;6343493;22;20398;-84
2022/10/30 02:42:11;;;;;;;34.97;26.63;;;14.40;1.00;;;;;;6300534;22;20399;-84
2022/10/30 02:44:43;;;;;;;30.03;25.03;;;14.30;1.00;;;;;;6322604;22;20401;-83
2022/10/30 02:47:13;;;;;;;31.77;26.37;;;14.20;1.00;;;;;;6308434;22;20419;-83
2022/10/30 02:49:44;;;;;;;30.57;25.60;;;14.10;1.00;;;;;;6310881;22;20491;-84
2022/10/30 02:52:15;;;;;;;32.57;25.87;;;14.00;1.00;;;;;;6318360;22;20384;-85
2022/10/30 02:54:44;;;;;;;29.30;25.10;;;14.00;1.00;;;;;;6317084;22;20387;-85
2022/10/30 02:57:11;;;;;;;31.83;26.40;;;14.10;1.00;;;;;;6313445;22;20481;-86
2022/10/30 02:59:54;;;;;;;29.33;23.93;;;14.00;1.00;;;;;;6324265;22;20528;-82
2022/10/30 03:02:24;;;;;;;30.63;25.00;;;14.10;1.00;;;;;;6306849;22;20389;-87
2022/10/30 03:05:02;;;;;;;27.47;24.57;;;14.00;1.00;;;;;;6320301;22;20396;-89
2022/10/30 03:07:33;;;;;;;29.00;24.60;;;14.00;1.00;;;;;;6310656;22;20483;-84
2022/10/30 03:10:09;;;;;;;32.30;24.60;;;13.90;1.00;;;;;;6306243;22;20541;-85
2022/10/30 03:12:44;;;;;;;29.70;24.77;;;13.90;1.00;;;;;;6328826;22;20413;-85
2022/10/30 03:15:14;;;;;;;31.30;26.13;;;14.00;1.00;;;;;;6304390;22;20426;-85
2022/10/30 03:17:44;;;;;;;32.20;26.87;;;13.90;1.00;;;;;;6337119;22;20967;-84
2022/10/30 03:20:19;;;;;;;32.67;26.87;;;14.00;1.00;;;;;;6305045;22;20563;-84
2022/10/30 03:23:03;;;;;;;27.80;24.10;;;14.00;1.00;;;;;;6299488;22;20426;-84
2022/10/30 03:25:44;;;;;;;32.20;26.83;;;14.10;1.00;;;;;;6315581;22;20456;-84
2022/10/30 03:28:14;;;;;;;29.57;25.30;;;14.10;1.00;;;;;;6316300;22;20388;-89
2022/10/30 03:30:43;;;;;;;33.60;26.33;;;14.10;1.00;;;;;;6308278;22;20438;-85
2022/10/30 03:33:14;;;;;;;33.83;26.03;;;14.20;1.00;;;;;;6303004;22;20453;-84
2022/10/30 03:35:44;;;;;;;33.17;25.17;;;14.10;1.00;;;;;;6318231;22;20423;-84
2022/10/30 03:38:19;;;;;;;31.00;24.50;;;14.10;1.00;;;;;;6317554;22;20385;-84
2022/10/30 03:40:46;;;;;;;30.60;24.17;;;14.00;1.00;;;;;;6297743;22;20990;-83
2022/10/30 03:43:14;;;;;;;31.10;25.10;;;14.00;1.00;;;;;;6313908;22;20520;-88
2022/10/30 03:45:54;;;;;;;34.80;27.73;;;14.00;1.00;;;;;;6303553;22;20388;-85
2022/10/30 03:48:33;;;;;;;36.60;27.23;;;14.10;1.00;;;;;;6329842;22;20448;-84
2022/10/30 03:51:15;;;;;;;39.23;30.60;;;14.10;1.00;;;;;;6297506;22;20395;-88
2022/10/30 03:53:46;;;;;;;35.50;26.07;;;14.10;1.00;;;;;;6322585;22;20423;-89
2022/10/30 03:56:14;;;;;;;30.10;23.97;;;14.00;1.00;;;;;;6310850;22;20407;-84
2022/10/30 03:58:44;;;;;;;33.07;25.50;;;14.00;1.00;;;;;;6302330;22;20401;-85
2022/10/30 04:01:16;;;;;;;31.00;24.63;;;14.20;1.00;;;;;;6326630;22;20395;-89
2022/10/30 04:03:44;;;;;;;25.43;21.83;;;14.20;1.00;;;;;;6322997;22;20498;-84
2022/10/30 04:06:16;;;;;;;30.10;22.83;;;14.10;1.00;;;;;;6334697;22;20638;-83
2022/10/30 04:08:47;;;;;;;26.97;22.10;;;14.20;1.00;;;;;;6317649;22;20407;-85
2022/10/30 04:11:16;;;;;;;26.50;22.07;;;14.20;1.00;;;;;;6304827;22;20460;-85
2022/10/30 04:13:43;;;;;;;30.87;22.20;;;14.40;1.00;;;;;;6312179;22;20416;-84
2022/10/30 04:16:18;;;;;;;30.03;23.43;;;14.40;1.00;;;;;;6317519;22;20399;-86
2022/10/30 04:18:44;;;;;;;30.43;24.30;;;14.40;1.00;;;;;;6315137;22;20771;-84
2022/10/30 04:21:11;;;;;;;29.73;23.63;;;14.40;1.00;;;;;;6318544;22;20393;-87
2022/10/30 04:23:44;;;;;;;28.10;24.23;;;14.40;1.00;;;;;;6324130;22;20435;-85
2022/10/30 04:26:15;;;;;;;28.43;21.77;;;14.50;1.00;;;;;;6322010;22;21071;-84
2022/10/30 04:28:47;;;;;;;25.10;22.20;;;14.50;1.00;;;;;;6305546;22;20388;-85
2022/10/30 04:31:14;;;;;;;29.57;21.63;;;14.60;1.00;;;;;;6325623;22;20398;-89
2022/10/30 04:33:44;;;;;;;28.17;22.70;;;14.60;1.00;;;;;;6309091;22;20450;-87
2022/10/30 04:36:23;;;;;;;29.83;22.83;;;14.70;1.00;;;;;;6309654;22;20384;-84
2022/10/30 04:38:49;;;;;;;27.30;22.90;;;14.70;1.00;;;;;;6277025;22;20487;-84
2022/10/30 04:41:18;;;;;;;31.37;22.67;;;14.60;1.00;;;;;;6311056;22;20427;-88
2022/10/30 04:43:44;;;;;;;26.10;22.73;;;14.60;1.00;;;;;;6310530;22;20503;-85
2022/10/30 04:46:18;;;;;;;26.27;21.80;;;14.60;1.00;;;;;;6308259;22;20416;-87
2022/10/30 04:48:45;;;;;;;26.53;20.37;;;14.60;1.00;;;;;;6286334;22;20424;-88
2022/10/30 04:51:16;;;;;;;28.10;23.27;;;14.50;1.00;;;;;;6311498;22;20444;-82
2022/10/30 04:53:45;;;;;;;27.00;22.00;;;14.50;1.00;;;;;;6325076;22;20507;-82
2022/10/30 04:56:15;;;;;;;25.60;22.30;;;14.60;1.00;;;;;;6312311;22;20447;-87
2022/10/30 04:58:46;;;;;;;27.23;22.03;;;14.60;1.00;;;;;;6324916;22;20459;-89
2022/10/30 05:01:13;;;;;;;25.73;22.50;;;14.50;1.00;;;;;;6303487;22;20457;-83
2022/10/30 05:03:45;;;;;;;27.57;22.63;;;14.50;1.00;;;;;;6316851;22;20387;-84
2022/10/30 05:06:25;;;;;;;26.53;20.93;;;14.50;1.00;;;;;;6322674;22;20596;-89
2022/10/30 05:08:55;;;;;;;26.27;21.53;;;14.50;1.00;;;;;;6298729;22;20391;-84
2022/10/30 05:11:26;;;;;;;27.10;21.87;;;14.40;1.00;;;;;;6317749;22;20476;-84
2022/10/30 05:14:06;;;;;;;28.73;23.37;;;14.20;1.00;;;;;;6279197;22;20389;-89
2022/10/30 05:16:34;;;;;;;27.07;23.20;;;14.20;1.00;;;;;;6304104;22;20471;-87
2022/10/30 05:19:07;;;;;;;28.17;22.50;;;14.30;1.00;;;;;;6290450;22;20478;-88
2022/10/30 05:21:34;;;;;;;28.30;22.20;;;14.30;1.00;;;;;;6317046;22;20396;-86
2022/10/30 05:24:04;;;;;;;27.30;21.17;;;14.40;1.00;;;;;;6308283;22;20455;-84
2022/10/30 05:26:36;;;;;;;26.50;22.30;;;14.30;1.00;;;;;;6329350;22;20400;-83
2022/10/30 05:29:04;;;;;;;30.00;22.47;;;14.30;1.00;;;;;;6316894;22;20387;-84
2022/10/30 05:31:41;;;;;;;25.60;21.03;;;14.30;1.00;;;;;;6311181;22;20411;-85
2022/10/30 05:34:26;;;;;;;27.70;22.87;;;14.40;1.00;;;;;;6269439;22;20489;-88
2022/10/30 05:36:56;;;;;;;26.00;22.17;;;14.40;1.00;;;;;;6324147;22;20408;-85
2022/10/30 05:39:26;;;;;;;31.30;22.20;;;14.30;1.00;;;;;;6311350;22;20387;-88
2022/10/30 05:41:55;;;;;;;27.30;22.73;;;14.20;1.00;;;;;;6266241;22;20437;-88
2022/10/30 05:44:33;;;;;;;27.93;22.13;;;14.10;1.00;;;;;;6304706;22;20412;-84
2022/10/30 05:47:07;;;;;;;25.97;22.00;;;14.10;1.00;;;;;;6279184;22;20428;-85
2022/10/30 05:49:34;;;;;;;27.37;21.03;;;14.20;1.00;;;;;;6309024;22;20478;-83
2022/10/30 05:52:05;;;;;;;25.03;20.10;;;14.20;1.00;;;;;;6308178;22;20455;-83
2022/10/30 05:54:35;;;;;;;32.73;23.17;;;14.20;1.00;;;;;;6318047;22;20882;-84
2022/10/30 05:57:04;;;;;;;25.97;20.63;;;14.20;1.00;;;;;;6333123;22;20393;-84
2022/10/30 05:59:36;;;;;;;29.97;20.40;;;14.30;1.00;;;;;;6318992;22;20501;-87
2022/10/30 06:02:06;;;;;;;29.10;22.30;;;14.20;1.00;;;;;;6317199;22;21041;-83
2022/10/30 06:04:34;;;;;;;31.33;23.00;;;14.00;1.00;;;;;;6313429;22;20832;-85
2022/10/30 06:07:05;;;;;;;29.87;21.63;;;14.00;1.00;;;;;;6313652;22;20462;-87
2022/10/30 06:09:35;;;;;;;27.70;22.27;;;14.00;1.00;;;;;;6327090;22;20995;-82
2022/10/30 06:12:05;;;;;;;30.40;22.73;;;14.10;1.00;;;;;;6293231;22;20401;-89
2022/10/30 06:14:36;;;;;;;28.13;21.57;;;14.10;1.00;;;;;;6333825;22;20400;-88
2022/10/30 06:17:06;;;;;;;26.20;20.30;;;14.20;1.00;;;;;;6301336;22;20400;-84
2022/10/30 06:19:35;;;;;;;25.67;20.77;;;14.30;1.00;;;;;;6328650;22;20400;-85
2022/10/30 06:22:07;;;;;;;25.47;21.33;;;14.30;1.00;;;;;;6288506;22;20445;-87
2022/10/30 06:24:34;;;;;;;31.13;21.83;;;14.30;1.00;;;;;;6329074;22;20421;-83
2022/10/30 06:27:05;;;;;;;24.13;21.03;;;14.40;1.00;;;;;;6322855;22;20422;-84
2022/10/30 06:29:32;;;;;;;24.37;20.67;;;14.40;1.00;;;;;;6316054;22;20376;-87
2022/10/30 06:32:16;;;;;;;25.77;20.50;;;14.40;1.00;;;;;;6311163;22;20466;-83
2022/10/30 06:34:45;;;;;;;30.23;21.93;;;14.40;1.00;;;;;;6307779;22;20400;-83
2022/10/30 06:37:15;;;;;;;29.67;21.03;;;14.30;1.00;;;;;;6295900;22;20931;-87
2022/10/30 06:39:45;;;;;;;31.40;20.27;;;14.30;1.00;;;;;;6322221;22;20408;-82
2022/10/30 06:42:26;;;;;;;24.00;19.57;;;14.30;1.00;;;;;;6311322;22;20404;-84
2022/10/30 06:45:03;;;;;;;27.20;20.83;;;14.30;1.00;;;;;;6318411;22;20387;-84
2022/10/30 06:47:36;;;;;;;25.20;20.27;;;14.40;1.00;;;;;;6317832;22;20419;-85
2022/10/30 06:50:13;;;;;;;27.53;20.50;;;14.40;1.00;;;;;;6306356;22;20638;-83
2022/10/30 06:52:48;;;;;;;25.80;18.90;;;14.50;1.00;;;;;;6314011;22;20403;-88
2022/10/30 06:55:15;;;;;;;25.27;19.67;;;14.70;1.00;;;;;;6322771;22;20503;-89
2022/10/30 06:57:45;;;;;;;24.50;20.23;;;14.70;1.00;;;;;;6332760;22;20425;-87
2022/10/30 07:00:18;;;;;;;24.37;20.43;;;14.70;1.00;;;;;;6314295;22;20394;-86
2022/10/30 07:02:55;;;;;;;27.40;20.27;;;14.70;1.00;;;;;;6341001;22;20942;-84
2022/10/30 07:05:25;;;;;;;24.37;20.20;;;14.80;1.00;;;;;;6312785;22;20402;-83
2022/10/30 07:08:06;;;;;;;22.30;19.40;;;14.80;1.00;;;;;;6322149;22;20413;-89
2022/10/30 07:10:35;;;;;;;21.73;18.77;;;14.90;1.00;;;;;;6312072;22;21236;-86
2022/10/30 07:13:14;;;;;;;29.23;20.00;;;14.90;1.00;;;;;;6311886;22;20554;-88
2022/10/30 07:15:45;;;;;;;23.77;19.00;;;15.00;1.00;;;;;;6321015;22;20875;-83
2022/10/30 07:18:13;;;;;;;23.87;20.37;;;15.00;1.00;;;;;;6294951;22;20449;-84
2022/10/30 07:20:55;;;;;;;23.27;19.10;;;14.90;1.00;;;;;;6321909;22;20396;-84
2022/10/30 07:23:28;;;;;;;25.37;19.70;;;14.90;1.00;;;;;;6309044;22;20391;-83
2022/10/30 07:25:59;;;;;;;22.50;19.70;;;14.90;1.00;;;;;;6319741;22;20375;-84
2022/10/30 07:28:26;;;;;;;26.73;20.93;;;15.00;1.00;;;;;;6303674;22;20462;-84
2022/10/30 07:30:55;;;;;;;25.97;18.90;;;15.00;1.00;;;;;;6309997;22;20436;-85
2022/10/30 07:33:26;;;;;;;22.80;19.77;;;15.10;1.00;;;;;;6311269;22;20832;-82
2022/10/30 07:35:53;;;;;;;27.27;20.70;;;15.00;1.00;;;;;;6281641;22;20413;-84
2022/10/30 07:38:25;;;;;;;24.27;19.80;;;15.00;1.00;;;;;;6299097;22;20403;-85
2022/10/30 07:40:53;;;;;;;25.60;19.97;;;15.10;1.00;;;;;;6328267;22;20473;-85
2022/10/30 07:43:25;;;;;;;23.73;18.33;;;15.30;1.00;;;;;;6319844;22;20402;-84
2022/10/30 07:45:52;;;;;;;28.03;19.87;;;15.40;1.00;;;;;;6308092;22;20406;-88
2022/10/30 07:48:27;;;;;;;24.27;18.27;;;15.40;1.00;;;;;;6340568;22;20918;-91
2022/10/30 07:50:56;;;;;;;27.30;20.80;;;15.50;1.00;;;;;;6321205;22;20398;-84
2022/10/30 07:53:26;;;;;;;28.13;20.23;;;15.50;1.00;;;;;;6306385;22;20431;-81
2022/10/30 07:55:55;;;;;;;24.13;19.40;;;15.60;1.00;;;;;;6291676;22;20421;-86
2022/10/30 07:58:22;;;;;;;23.33;18.47;;;15.70;1.00;;;;;;6320208;22;20790;-80
2022/10/30 08:00:59;;;;;;;21.20;18.97;;;15.80;1.00;;;;;;6327076;22;21390;-84
2022/10/30 08:03:26;;;;;;;26.00;18.20;;;15.80;1.00;;;;;;6319001;22;20745;-80
2022/10/30 08:05:56;;;;;;;22.53;18.80;;;15.90;1.00;;;;;;6319022;22;20422;-83
2022/10/30 08:08:23;;;;;;;25.13;18.20;;;15.90;1.00;;;;;;6320757;22;20424;-84
2022/10/30 08:10:54;;;;;;;23.30;18.70;;;16.00;1.00;;;;;;6307263;22;20477;-88
2022/10/30 08:13:27;;;;;;;21.00;18.00;;;16.20;1.00;;;;;;6341648;22;20469;-89
2022/10/30 08:15:54;;;;;;;22.57;19.20;;;16.40;1.00;;;;;;6317048;22;20373;-88
2022/10/30 08:18:45;;;;;;;21.73;17.90;;;16.70;1.00;;;;;;6309978;22;21110;-84
2022/10/30 08:21:16;;;;;;;20.63;17.00;;;17.00;1.00;;;;;;6267265;22;20467;-78
2022/10/30 08:23:44;;;;;;;23.67;15.53;;;17.20;1.00;;;;;;6325321;22;20512;-80
2022/10/30 08:26:14;;;;;;;24.80;18.20;;;17.30;1.00;;;;;;6320764;22;20433;-82
2022/10/30 08:28:44;;;;;;;21.53;15.33;;;17.30;1.00;;;;;;6321941;22;20404;-84
2022/10/30 08:31:19;;;;;;;21.13;15.47;;;17.40;1.00;;;;;;6310663;22;20523;-85
2022/10/30 08:33:46;;;;;;;20.77;17.13;;;17.50;1.00;;;;;;6307281;22;20628;-80
2022/10/30 08:36:16;;;;;;;22.27;16.33;;;17.50;1.00;;;;;;6293413;22;20374;-79
2022/10/30 08:38:43;;;;;;;20.30;16.83;;;17.40;1.00;;;;;;6315924;22;20472;-80
2022/10/30 08:41:10;;;;;;;19.90;16.50;;;17.20;1.00;;;;;;6317879;22;20390;-81
2022/10/30 08:43:37;;;;;;;22.30;16.50;;;17.20;1.00;;;;;;6316746;22;20454;-80
2022/10/30 08:46:06;;;;;;;21.87;16.50;;;17.30;1.00;;;;;;6319610;22;20433;-80
2022/10/30 08:48:34;;;;;;;20.17;17.00;;;17.40;1.00;;;;;;6312140;22;20394;-80
2022/10/30 08:51:05;;;;;;;22.50;16.17;;;17.60;1.00;;;;;;6324057;22;20415;-79
2022/10/30 08:53:36;;;;;;;24.47;16.33;;;17.70;1.00;;;;;;6339660;22;20436;-80
2022/10/30 08:56:06;;;;;;;20.43;16.43;;;17.90;1.00;;;;;;6317179;22;20394;-85
2022/10/30 08:58:34;;;;;;;21.80;16.93;;;18.00;1.00;;;;;;6295498;22;20405;-82
2022/10/30 09:01:08;;;;;;;21.37;16.30;;;18.20;1.00;;;;;;6307366;22;20385;-77
2022/10/30 09:03:35;;;;;;;18.07;16.17;;;18.20;1.00;;;;;;6305674;22;21076;-78
2022/10/30 09:06:04;;;;;;;18.30;15.60;;;18.40;1.00;;;;;;6287004;22;20467;-82
2022/10/30 09:08:41;;;;;;;22.47;16.63;;;18.50;1.00;;;;;;6282494;22;20529;-79
2022/10/30 09:11:08;;;;;;;17.80;14.17;;;18.90;1.00;;;;;;6272145;22;20868;-81
2022/10/30 09:13:34;;;;;;;20.80;16.20;;;20.00;1.00;;;;;;6279924;22;20450;-79
2022/10/30 09:16:13;;;;;;;17.60;14.70;;;21.00;1.00;;;;;;6276751;22;20448;-81
2022/10/30 09:18:46;;;;;;;17.80;13.93;;;22.40;1.00;;;;;;6288029;22;20405;-81
2022/10/30 09:21:14;;;;;;;18.43;13.37;;;22.90;1.00;;;;;;6286663;22;20427;-80
2022/10/30 09:23:46;;;;;;;16.53;12.70;;;23.00;1.00;;;;;;6272381;22;20414;-80
2022/10/30 09:26:16;;;;;;;16.50;13.30;;;22.50;1.00;;;;;;6288161;22;20412;-79
2022/10/30 09:28:43;;;;;;;19.27;13.30;;;21.80;1.00;;;;;;6285591;22;20448;-81
2022/10/30 09:31:10;;;;;;;19.13;13.33;;;21.40;1.00;;;;;;6287150;22;20398;-82
2022/10/30 09:33:37;;;;;;;17.43;12.70;;;20.80;1.00;;;;;;6288127;22;20560;-83
2022/10/30 09:36:05;;;;;;;20.00;12.40;;;20.80;1.00;;;;;;6270473;22;20410;-81
2022/10/30 09:38:32;;;;;;;16.57;12.43;;;21.00;1.00;;;;;;6281168;22;20901;-84
2022/10/30 09:41:40;;;;;;;17.97;11.70;;;21.30;1.00;;;;;;6291425;22;20417;-81
2022/10/30 09:44:32;;;;;;;19.10;12.13;;;21.40;1.00;;;;;;6294144;22;20385;-79
2022/10/30 09:47:25;;;;;;;17.37;12.00;;;21.50;1.00;;;;;;6290266;22;20409;-80
2022/10/30 09:50:19;;;;;;;17.33;12.10;;;21.80;1.00;;;;;;6288284;22;20428;-81
2022/10/30 09:53:03;;;;;;;15.90;11.60;;;22.10;1.00;;;;;;6289138;22;20388;-80
2022/10/30 09:55:41;;;;;;;14.60;9.77;;;22.30;1.00;;;;;;6290845;22;20408;-80
2022/10/30 09:58:26;;;;;;;18.10;11.43;;;22.00;1.00;;;;;;6280784;22;20453;-78
2022/10/30 10:01:09;;;;;;;19.03;10.97;;;21.80;1.00;;;;;;6290858;22;20452;-78
2022/10/30 10:04:10;;;;;;;15.03;10.10;;;21.70;1.00;;;;;;6297481;22;20380;-81
2022/10/30 10:06:45;;;;;;;13.47;9.80;;;21.60;1.00;;;;;;6323909;22;20409;-82
2022/10/30 10:09:18;;;;;;;18.90;10.20;;;21.70;1.00;;;;;;6282978;22;20441;-82
2022/10/30 10:11:54;;;;;;;13.37;10.23;;;22.60;1.00;;;;;;6323414;22;20432;-81
2022/10/30 10:14:31;;;;;;;14.97;9.73;;;23.40;1.00;;;;;;6322242;22;20612;-81
2022/10/30 10:17:03;;;;;;;16.90;9.93;;;24.20;1.00;;;;;;6319274;22;20430;-82
2022/10/30 10:19:43;;;;;;;13.03;9.17;;;24.90;1.00;;;;;;6324322;22;20587;-81
2022/10/30 10:22:50;;;;;;;14.53;9.30;;;25.00;1.00;;;;;;6322202;22;20419;-82
2022/10/30 10:25:21;;;;;;;16.50;10.00;;;24.90;1.00;;;;;;6315736;22;20378;-81
2022/10/30 10:28:21;;;;;;;15.93;11.17;;;24.80;1.00;;;;;;6323122;22;21698;-82
2022/10/30 10:31:00;;;;;;;18.67;9.93;;;24.70;1.00;;;;;;6324671;22;20400;-82
2022/10/30 10:33:51;;;;;;;14.90;10.17;;;24.80;1.00;;;;;;6331172;22;20403;-82
2022/10/30 10:36:40;;;;;;;19.17;9.57;;;25.30;1.00;;;;;;6322811;22;20428;-78
2022/10/30 10:39:30;;;;;;;19.57;9.50;;;26.30;1.00;;;;;;6324450;22;20387;-83
2022/10/30 10:42:23;;;;;;;16.67;9.03;;;26.50;1.00;;;;;;6319343;22;20398;-78
2022/10/30 10:45:08;;;;;;;13.20;8.50;;;27.00;1.00;;;;;;6328476;22;20402;-82
2022/10/30 10:48:11;;;;;;;14.40;9.00;;;26.90;1.00;;;;;;6317698;22;20450;-83
2022/10/30 10:50:52;;;;;;;17.63;11.03;;;27.10;1.00;;;;;;6266134;22;20508;-83
2022/10/30 10:53:31;;;;;;;14.10;9.13;;;27.40;1.00;;;;;;6323749;22;20450;-85
2022/10/30 10:56:15;;;;;;;15.50;8.40;;;27.80;1.00;;;;;;6324167;22;20383;-84
2022/10/30 10:58:54;;;;;;;14.90;9.07;;;28.30;1.00;;;;;;6324956;22;20857;-83
2022/10/30 11:01:31;;;;;;;14.23;8.80;;;28.50;1.00;;;;;;6321939;22;20801;-83
2022/10/30 11:04:10;;;;;;;15.93;8.80;;;28.50;1.00;;;;;;6325588;22;20405;-91
2022/10/30 11:06:53;;;;;;;15.43;8.40;;;28.60;1.00;;;;;;6318233;22;20422;-82
2022/10/30 11:09:24;;;;;;;18.63;9.10;;;28.90;1.00;;;;;;6320209;22;20394;-83
2022/10/30 11:11:54;;;;;;;14.77;8.27;;;28.90;1.00;;;;;;6315510;22;20434;-80
2022/10/30 11:14:23;;;;;;;13.97;8.33;;;28.80;1.00;;;;;;6317788;22;20395;-80
2022/10/30 11:17:13;;;;;;;12.90;8.00;;;28.80;1.00;;;;;;6322632;22;20406;-80
2022/10/30 11:19:51;;;;;;;13.37;8.50;;;28.80;1.00;;;;;;6318816;22;20411;-81
2022/10/30 11:22:29;;;;;;;11.33;7.17;;;28.80;1.00;;;;;;6321013;22;20853;-80
2022/10/30 11:24:56;;;;;;;14.33;8.00;;;28.60;1.00;;;;;;6324014;22;20405;-86
2022/10/30 11:27:29;;;;;;;14.93;8.03;;;28.60;1.00;;;;;;6322356;22;20468;-81
2022/10/30 11:30:11;;;;;;;19.90;7.60;;;28.60;1.00;;;;;;6324085;22;20398;-86
2022/10/30 11:32:40;;;;;;;14.43;7.13;;;29.30;1.00;;;;;;6325172;22;20411;-82
2022/10/30 11:35:14;;;;;;;14.80;8.10;;;30.00;1.00;;;;;;6322199;22;20402;-84
2022/10/30 11:37:50;;;;;;;13.50;6.87;;;29.80;1.00;;;;;;6326002;22;20468;-82
2022/10/30 11:40:23;;;;;;;14.67;7.97;;;29.80;1.00;;;;;;6322588;22;20482;-87
2022/10/30 11:43:04;;;;;;;11.47;7.07;;;30.00;1.00;;;;;;6322473;22;20481;-82
2022/10/30 11:45:40;;;;;;;11.00;7.00;;;30.40;1.00;;;;;;6331245;22;20480;-83
2022/10/30 11:48:33;;;;;;;14.40;7.40;;;30.40;1.00;;;;;;6324251;22;20410;-89
2022/10/30 11:51:03;;;;;;;11.90;6.60;;;30.50;1.00;;;;;;6325282;22;20462;-83
2022/10/30 11:53:35;;;;;;;14.33;6.60;;;30.80;1.00;;;;;;6320724;22;21234;-80
2022/10/30 11:56:10;;;;;;;14.53;6.90;;;31.60;1.00;;;;;;6323489;22;20411;-80
2022/10/30 11:58:49;;;;;;;11.73;6.60;;;32.40;1.00;;;;;;6325936;22;20460;-87
2022/10/30 12:01:23;;;;;;;14.43;7.20;;;33.30;1.00;;;;;;6282255;22;20418;-84
2022/10/30 12:03:51;;;;;;;15.43;6.03;;;33.60;1.00;;;;;;6324202;22;20398;-80
2022/10/30 12:06:28;;;;;;;15.70;6.50;;;34.20;1.00;;;;;;6325777;22;20450;-81
2022/10/30 12:09:02;;;;;;;11.50;7.00;;;34.60;1.00;;;;;;6323120;22;20887;-84
2022/10/30 12:11:32;;;;;;;10.93;6.40;;;35.10;1.00;;;;;;6321965;22;20382;-79
2022/10/30 12:14:02;;;;;;;11.20;5.97;;;35.70;1.00;;;;;;6341105;22;20521;-83
2022/10/30 12:16:38;;;;;;;11.87;6.43;;;36.00;1.00;;;;;;6327564;22;20379;-82
2022/10/30 12:19:18;;;;;;;17.30;7.63;;;34.80;1.00;;;;;;6321620;22;20395;-85
2022/10/30 12:21:50;;;;;;;11.53;6.27;;;33.10;1.00;;;;;;6325661;22;20438;-82
2022/10/30 12:24:30;;;;;;;16.00;8.20;;;32.20;1.00;;;;;;6326301;22;20442;-85
2022/10/30 12:27:11;;;;;;;15.07;7.43;;;31.70;1.00;;;;;;6325400;22;20374;-84
2022/10/30 12:30:15;;;;;;;14.90;7.10;;;31.40;1.00;;;;;;6325813;22;20379;-86
2022/10/30 12:32:53;;;;;;;12.20;6.57;;;30.90;1.00;;;;;;6321891;22;20379;-82
2022/10/30 12:35:48;;;;;;;13.27;6.47;;;31.20;1.00;;;;;;6325255;22;20410;-79
2022/10/30 12:38:26;;;;;;;15.77;6.57;;;32.10;1.00;;;;;;6308768;22;20422;-80
2022/10/30 12:41:12;;;;;;;13.10;5.80;;;31.80;1.00;;;;;;6320669;22;20422;-84
2022/10/30 12:43:41;;;;;;;23.60;17.90;;;30.80;1.00;;;;;;6321888;22;20434;-81
2022/10/30 12:46:23;;;;;;;12.17;6.87;;;30.00;1.00;;;;;;6314695;22;20509;-83
2022/10/30 12:48:53;;;;;;;13.37;6.83;;;29.40;1.00;;;;;;6320946;22;20411;-83
2022/10/30 12:51:34;;;;;;;11.77;6.27;;;28.90;1.00;;;;;;6319792;22;20417;-83
2022/10/30 12:54:25;;;;;;;15.17;6.37;;;28.50;1.00;;;;;;6319145;22;20394;-85
2022/10/30 12:57:02;;;;;;;12.30;6.60;;;28.10;1.00;;;;;;6316913;22;20430;-79
2022/10/30 12:59:43;;;;;;;14.30;7.63;;;27.80;1.00;;;;;;6314008;22;20418;-80
2022/10/30 13:02:24;;;;;;;13.37;7.23;;;27.90;1.00;;;;;;6318385;22;20442;-89
2022/10/30 13:05:04;;;;;;;14.40;7.13;;;29.10;1.00;;;;;;6319991;22;20422;-84
2022/10/30 13:07:47;;;;;;;18.90;9.47;;;30.50;1.00;;;;;;6321668;22;20492;-87
2022/10/30 13:10:35;;;;;;;11.47;6.63;;;31.50;1.00;;;;;;6307402;22;20444;-85
2022/10/30 13:13:27;;;;;;;19.63;6.87;;;31.30;1.00;;;;;;6338808;22;20393;-87
2022/10/30 13:15:58;;;;;;;13.93;5.93;;;30.50;1.00;;;;;;6321614;22;20398;-83
2022/10/30 13:18:34;;;;;;;18.10;6.50;;;29.80;1.00;;;;;;6323826;22;20421;-83